sensor_id;sensor_type;location;lat;lon;timestamp;P1;durP1;ratioP1;P2;durP2;ratioP2
45388;SDS011;31127;52.078;4.370;2022-07-06T00:01:25;3.45;;;0.90;;
45388;SDS011;31127;52.078;4.370;2022-07-06T00:06:20;5.28;;;1.05;;
45388;SDS011;31127;52.078;4.370;2022-07-06T00:11:16;4.70;;;0.80;;
45388;SDS011;31127;52.078;4.370;2022-07-06T00:32:49;1.60;;;0.45;;
45388;SDS011;31127;52.078;4.370;2022-07-06T00:37:45;3.90;;;0.88;;
45388;SDS011;31127;52.078;4.370;2022-07-06T00:42:41;3.40;;;0.65;;
45388;SDS011;31127;52.078;4.370;2022-07-06T00:47:37;3.13;;;0.80;;
45388;SDS011;31127;52.078;4.370;2022-07-06T00:52:32;4.75;;;1.10;;
45388;SDS011;31127;52.078;4.370;2022-07-06T00:57:28;3.67;;;0.93;;
45388;SDS011;31127;52.078;4.370;2022-07-06T01:02:23;3.05;;;0.70;;
45388;SDS011;31127;52.078;4.370;2022-07-06T01:07:19;6.87;;;1.00;;
45388;SDS011;31127;52.078;4.370;2022-07-06T01:12:14;2.90;;;0.85;;
45388;SDS011;31127;52.078;4.370;2022-07-06T01:17:10;2.83;;;0.60;;
45388;SDS011;31127;52.078;4.370;2022-07-06T01:22:05;2.13;;;0.80;;
45388;SDS011;31127;52.078;4.370;2022-07-06T01:27:01;2.63;;;0.97;;
45388;SDS011;31127;52.078;4.370;2022-07-06T01:31:56;3.65;;;0.70;;
45388;SDS011;31127;52.078;4.370;2022-07-06T01:36:52;1.95;;;0.80;;
45388;SDS011;31127;52.078;4.370;2022-07-06T01:41:48;1.73;;;0.70;;
45388;SDS011;31127;52.078;4.370;2022-07-06T01:46:43;3.38;;;0.70;;
45388;SDS011;31127;52.078;4.370;2022-07-06T01:51:39;2.47;;;0.60;;
45388;SDS011;31127;52.078;4.370;2022-07-06T01:56:34;3.92;;;0.95;;
45388;SDS011;31127;52.078;4.370;2022-07-06T02:01:33;1.90;;;0.73;;
45388;SDS011;31127;52.078;4.370;2022-07-06T02:06:28;2.87;;;0.60;;
45388;SDS011;31127;52.078;4.370;2022-07-06T02:11:23;7.80;;;0.80;;
45388;SDS011;31127;52.078;4.370;2022-07-06T02:28:01;3.60;;;1.00;;
45388;SDS011;31127;52.078;4.370;2022-07-06T02:32:56;1.70;;;0.70;;
45388;SDS011;31127;52.078;4.370;2022-07-06T02:37:52;4.20;;;0.80;;
45388;SDS011;31127;52.078;4.370;2022-07-06T02:42:48;1.88;;;0.95;;
45388;SDS011;31127;52.078;4.370;2022-07-06T02:47:43;2.67;;;0.60;;
45388;SDS011;31127;52.078;4.370;2022-07-06T02:52:38;3.78;;;1.23;;
45388;SDS011;31127;52.078;4.370;2022-07-06T02:57:34;4.23;;;0.87;;
45388;SDS011;31127;52.078;4.370;2022-07-06T03:02:30;1.38;;;0.55;;
45388;SDS011;31127;52.078;4.370;2022-07-06T03:07:25;1.88;;;0.40;;
45388;SDS011;31127;52.078;4.370;2022-07-06T03:17:30;4.20;;;0.80;;
45388;SDS011;31127;52.078;4.370;2022-07-06T03:22:25;2.60;;;0.70;;
45388;SDS011;31127;52.078;4.370;2022-07-06T03:32:29;4.35;;;1.00;;
45388;SDS011;31127;52.078;4.370;2022-07-06T03:37:27;4.78;;;1.30;;
45388;SDS011;31127;52.078;4.370;2022-07-06T03:42:23;2.65;;;0.70;;
45388;SDS011;31127;52.078;4.370;2022-07-06T03:47:19;1.58;;;0.47;;
45388;SDS011;31127;52.078;4.370;2022-07-06T03:52:16;1.85;;;0.65;;
45388;SDS011;31127;52.078;4.370;2022-07-06T03:57:18;2.83;;;0.90;;
45388;SDS011;31127;52.078;4.370;2022-07-06T04:02:13;3.33;;;0.75;;
45388;SDS011;31127;52.078;4.370;2022-07-06T04:07:09;1.47;;;0.53;;
45388;SDS011;31127;52.078;4.370;2022-07-06T04:12:05;4.85;;;2.58;;
45388;SDS011;31127;52.078;4.370;2022-07-06T04:17:01;5.70;;;0.95;;
45388;SDS011;31127;52.078;4.370;2022-07-06T04:22:19;5.78;;;1.05;;
45388;SDS011;31127;52.078;4.370;2022-07-06T04:27:15;5.28;;;0.73;;
45388;SDS011;31127;52.078;4.370;2022-07-06T04:37:19;4.70;;;0.90;;
45388;SDS011;31127;52.078;4.370;2022-07-06T04:42:15;4.80;;;0.80;;
45388;SDS011;31127;52.078;4.370;2022-07-06T04:47:10;1.60;;;0.60;;
45388;SDS011;31127;52.078;4.370;2022-07-06T04:52:06;2.75;;;0.80;;
45388;SDS011;31127;52.078;4.370;2022-07-06T04:57:02;2.20;;;0.63;;
45388;SDS011;31127;52.078;4.370;2022-07-06T05:01:58;5.47;;;0.98;;
45388;SDS011;31127;52.078;4.370;2022-07-06T05:06:54;3.63;;;0.70;;
45388;SDS011;31127;52.078;4.370;2022-07-06T05:11:49;2.38;;;0.80;;
45388;SDS011;31127;52.078;4.370;2022-07-06T05:16:45;1.85;;;0.73;;
45388;SDS011;31127;52.078;4.370;2022-07-06T05:26:50;2.13;;;0.88;;
45388;SDS011;31127;52.078;4.370;2022-07-06T05:31:46;2.95;;;0.77;;
45388;SDS011;31127;52.078;4.370;2022-07-06T05:36:42;6.53;;;1.20;;
45388;SDS011;31127;52.078;4.370;2022-07-06T05:41:42;1.20;;;0.50;;
45388;SDS011;31127;52.078;4.370;2022-07-06T05:46:38;3.40;;;0.70;;
45388;SDS011;31127;52.078;4.370;2022-07-06T05:51:35;1.48;;;0.60;;
45388;SDS011;31127;52.078;4.370;2022-07-06T05:56:30;1.85;;;0.70;;
45388;SDS011;31127;52.078;4.370;2022-07-06T06:01:26;3.33;;;0.50;;
45388;SDS011;31127;52.078;4.370;2022-07-06T06:06:32;4.63;;;0.90;;
45388;SDS011;31127;52.078;4.370;2022-07-06T06:11:28;7.30;;;1.42;;
45388;SDS011;31127;52.078;4.370;2022-07-06T06:16:24;2.80;;;0.82;;
45388;SDS011;31127;52.078;4.370;2022-07-06T06:33:16;4.18;;;0.80;;
45388;SDS011;31127;52.078;4.370;2022-07-06T06:38:11;2.33;;;0.70;;
45388;SDS011;31127;52.078;4.370;2022-07-06T06:48:53;5.35;;;1.02;;
45388;SDS011;31127;52.078;4.370;2022-07-06T06:53:48;2.07;;;0.60;;
45388;SDS011;31127;52.078;4.370;2022-07-06T06:58:43;4.88;;;1.00;;
45388;SDS011;31127;52.078;4.370;2022-07-06T07:03:39;7.00;;;1.03;;
45388;SDS011;31127;52.078;4.370;2022-07-06T07:08:34;5.68;;;0.80;;
45388;SDS011;31127;52.078;4.370;2022-07-06T07:13:29;5.50;;;0.80;;
45388;SDS011;31127;52.078;4.370;2022-07-06T07:18:25;3.28;;;0.60;;
45388;SDS011;31127;52.078;4.370;2022-07-06T07:33:57;2.22;;;0.75;;
45388;SDS011;31127;52.078;4.370;2022-07-06T07:38:53;3.35;;;0.60;;
45388;SDS011;31127;52.078;4.370;2022-07-06T07:43:49;4.00;;;0.80;;
45388;SDS011;31127;52.078;4.370;2022-07-06T07:48:44;2.20;;;0.60;;
45388;SDS011;31127;52.078;4.370;2022-07-06T07:59:02;5.45;;;0.57;;
45388;SDS011;31127;52.078;4.370;2022-07-06T08:04:00;0.98;;;0.50;;
45388;SDS011;31127;52.078;4.370;2022-07-06T08:08:55;4.50;;;0.60;;
45388;SDS011;31127;52.078;4.370;2022-07-06T08:13:51;2.83;;;0.80;;
45388;SDS011;31127;52.078;4.370;2022-07-06T08:18:46;1.90;;;0.80;;
45388;SDS011;31127;52.078;4.370;2022-07-06T08:41:57;2.80;;;0.97;;
45388;SDS011;31127;52.078;4.370;2022-07-06T08:46:53;4.80;;;1.20;;
45388;SDS011;31127;52.078;4.370;2022-07-06T08:51:49;0.80;;;0.60;;
45388;SDS011;31127;52.078;4.370;2022-07-06T08:56:45;6.57;;;0.77;;
45388;SDS011;31127;52.078;4.370;2022-07-06T09:12:04;2.50;;;1.00;;
45388;SDS011;31127;52.078;4.370;2022-07-06T09:17:05;20.67;;;1.63;;
45388;SDS011;31127;52.078;4.370;2022-07-06T09:22:01;2.50;;;0.57;;
45388;SDS011;31127;52.078;4.370;2022-07-06T09:26:57;1.58;;;0.70;;
45388;SDS011;31127;52.078;4.370;2022-07-06T09:32:11;1.10;;;0.60;;
45388;SDS011;31127;52.078;4.370;2022-07-06T09:55:16;4.40;;;1.00;;
45388;SDS011;31127;52.078;4.370;2022-07-06T10:00:11;8.57;;;0.80;;
45388;SDS011;31127;52.078;4.370;2022-07-06T10:05:07;5.18;;;1.42;;
45388;SDS011;31127;52.078;4.370;2022-07-06T10:10:03;2.80;;;0.65;;
45388;SDS011;31127;52.078;4.370;2022-07-06T10:36:12;4.10;;;0.90;;
45388;SDS011;31127;52.078;4.370;2022-07-06T11:09:31;7.25;;;1.80;;
45388;SDS011;31127;52.078;4.370;2022-07-06T11:14:27;4.20;;;1.10;;
45388;SDS011;31127;52.078;4.370;2022-07-06T11:42:16;11.13;;;1.95;;
45388;SDS011;31127;52.078;4.370;2022-07-06T11:47:13;5.25;;;1.50;;
45388;SDS011;31127;52.078;4.370;2022-07-06T12:09:02;6.03;;;1.30;;
45388;SDS011;31127;52.078;4.370;2022-07-06T12:38:00;4.22;;;1.48;;
45388;SDS011;31127;52.078;4.370;2022-07-06T12:42:56;4.13;;;1.88;;
45388;SDS011;31127;52.078;4.370;2022-07-06T12:48:01;5.22;;;1.77;;
45388;SDS011;31127;52.078;4.370;2022-07-06T12:58:24;5.28;;;1.67;;
45388;SDS011;31127;52.078;4.370;2022-07-06T13:08:28;5.80;;;1.88;;
45388;SDS011;31127;52.078;4.370;2022-07-06T13:13:23;6.15;;;2.05;;
45388;SDS011;31127;52.078;4.370;2022-07-06T13:18:19;5.45;;;2.53;;
45388;SDS011;31127;52.078;4.370;2022-07-06T13:23:15;5.32;;;2.90;;
45388;SDS011;31127;52.078;4.370;2022-07-06T13:28:10;8.00;;;3.23;;
45388;SDS011;31127;52.078;4.370;2022-07-06T13:33:05;10.70;;;4.53;;
45388;SDS011;31127;52.078;4.370;2022-07-06T13:38:01;9.25;;;4.18;;
45388;SDS011;31127;52.078;4.370;2022-07-06T13:42:56;8.70;;;4.20;;
45388;SDS011;31127;52.078;4.370;2022-07-06T13:47:52;10.88;;;4.25;;
45388;SDS011;31127;52.078;4.370;2022-07-06T13:52:47;16.20;;;6.10;;
45388;SDS011;31127;52.078;4.370;2022-07-06T13:57:43;11.77;;;5.77;;
45388;SDS011;31127;52.078;4.370;2022-07-06T14:02:38;12.00;;;6.67;;
45388;SDS011;31127;52.078;4.370;2022-07-06T14:07:33;11.18;;;6.72;;
45388;SDS011;31127;52.078;4.370;2022-07-06T14:12:29;9.85;;;5.18;;
45388;SDS011;31127;52.078;4.370;2022-07-06T14:17:25;15.55;;;5.95;;
45388;SDS011;31127;52.078;4.370;2022-07-06T14:22:20;15.45;;;8.05;;
45388;SDS011;31127;52.078;4.370;2022-07-06T14:27:15;12.40;;;7.07;;
45388;SDS011;31127;52.078;4.370;2022-07-06T14:48:49;6.07;;;2.97;;
45388;SDS011;31127;52.078;4.370;2022-07-06T14:53:44;4.83;;;2.40;;
45388;SDS011;31127;52.078;4.370;2022-07-06T14:58:39;9.25;;;2.10;;
45388;SDS011;31127;52.078;4.370;2022-07-06T15:03:34;7.70;;;2.33;;
45388;SDS011;31127;52.078;4.370;2022-07-06T15:08:30;6.33;;;2.00;;
45388;SDS011;31127;52.078;4.370;2022-07-06T15:13:26;6.07;;;1.83;;
45388;SDS011;31127;52.078;4.370;2022-07-06T15:18:21;8.85;;;2.88;;
45388;SDS011;31127;52.078;4.370;2022-07-06T15:23:17;4.00;;;1.67;;
45388;SDS011;31127;52.078;4.370;2022-07-06T15:28:12;4.85;;;1.27;;
45388;SDS011;31127;52.078;4.370;2022-07-06T15:33:08;4.95;;;1.20;;
45388;SDS011;31127;52.078;4.370;2022-07-06T15:44:24;4.72;;;1.60;;
45388;SDS011;31127;52.078;4.370;2022-07-06T16:14:07;4.30;;;1.73;;
45388;SDS011;31127;52.078;4.370;2022-07-06T16:19:02;8.73;;;2.22;;
45388;SDS011;31127;52.078;4.370;2022-07-06T16:23:57;5.80;;;2.13;;
45388;SDS011;31127;52.078;4.370;2022-07-06T16:28:53;7.23;;;2.07;;
45388;SDS011;31127;52.078;4.370;2022-07-06T16:33:48;5.97;;;2.13;;
45388;SDS011;31127;52.078;4.370;2022-07-06T16:38:44;5.25;;;2.30;;
45388;SDS011;31127;52.078;4.370;2022-07-06T16:43:39;8.93;;;4.00;;
45388;SDS011;31127;52.078;4.370;2022-07-06T16:48:34;4.43;;;1.93;;
45388;SDS011;31127;52.078;4.370;2022-07-06T16:53:30;3.95;;;2.10;;
45388;SDS011;31127;52.078;4.370;2022-07-06T16:58:25;3.85;;;1.88;;
45388;SDS011;31127;52.078;4.370;2022-07-06T17:03:21;4.83;;;1.50;;
45388;SDS011;31127;52.078;4.370;2022-07-06T17:08:16;3.92;;;1.85;;
45388;SDS011;31127;52.078;4.370;2022-07-06T17:13:12;5.65;;;2.00;;
45388;SDS011;31127;52.078;4.370;2022-07-06T17:18:07;3.88;;;1.77;;
45388;SDS011;31127;52.078;4.370;2022-07-06T17:23:03;6.45;;;2.00;;
45388;SDS011;31127;52.078;4.370;2022-07-06T17:27:58;9.93;;;2.40;;
45388;SDS011;31127;52.078;4.370;2022-07-06T17:32:54;9.82;;;3.42;;
45388;SDS011;31127;52.078;4.370;2022-07-06T17:37:49;6.13;;;2.75;;
45388;SDS011;31127;52.078;4.370;2022-07-06T17:42:45;6.13;;;2.50;;
45388;SDS011;31127;52.078;4.370;2022-07-06T17:47:41;5.05;;;2.58;;
45388;SDS011;31127;52.078;4.370;2022-07-06T17:52:36;5.78;;;2.60;;
45388;SDS011;31127;52.078;4.370;2022-07-06T17:57:31;8.73;;;2.40;;
45388;SDS011;31127;52.078;4.370;2022-07-06T18:02:26;8.60;;;3.17;;
45388;SDS011;31127;52.078;4.370;2022-07-06T18:07:22;6.13;;;2.60;;
45388;SDS011;31127;52.078;4.370;2022-07-06T18:12:17;5.65;;;2.55;;
45388;SDS011;31127;52.078;4.370;2022-07-06T18:17:13;6.35;;;2.25;;
45388;SDS011;31127;52.078;4.370;2022-07-06T18:39:15;7.05;;;3.10;;
45388;SDS011;31127;52.078;4.370;2022-07-06T18:44:11;14.88;;;4.22;;
45388;SDS011;31127;52.078;4.370;2022-07-06T18:49:06;7.78;;;4.30;;
45388;SDS011;31127;52.078;4.370;2022-07-06T18:54:03;5.15;;;3.63;;
45388;SDS011;31127;52.078;4.370;2022-07-06T19:10:58;5.93;;;3.75;;
45388;SDS011;31127;52.078;4.370;2022-07-06T19:15:53;6.97;;;3.65;;
45388;SDS011;31127;52.078;4.370;2022-07-06T19:20:49;5.70;;;3.55;;
45388;SDS011;31127;52.078;4.370;2022-07-06T19:25:44;7.13;;;4.40;;
45388;SDS011;31127;52.078;4.370;2022-07-06T19:30:40;8.50;;;4.10;;
45388;SDS011;31127;52.078;4.370;2022-07-06T19:35:35;7.72;;;3.83;;
45388;SDS011;31127;52.078;4.370;2022-07-06T19:57:51;7.00;;;3.40;;
45388;SDS011;31127;52.078;4.370;2022-07-06T20:02:47;7.13;;;3.50;;
45388;SDS011;31127;52.078;4.370;2022-07-06T20:07:42;4.57;;;3.47;;
45388;SDS011;31127;52.078;4.370;2022-07-06T20:12:37;4.77;;;3.60;;
45388;SDS011;31127;52.078;4.370;2022-07-06T20:17:33;7.93;;;4.17;;
45388;SDS011;31127;52.078;4.370;2022-07-06T20:22:28;7.03;;;3.60;;
45388;SDS011;31127;52.078;4.370;2022-07-06T20:27:24;7.35;;;4.18;;
45388;SDS011;31127;52.078;4.370;2022-07-06T20:32:21;7.90;;;3.60;;
45388;SDS011;31127;52.078;4.370;2022-07-06T20:37:16;6.13;;;3.53;;
45388;SDS011;31127;52.078;4.370;2022-07-06T20:42:11;5.70;;;3.55;;
45388;SDS011;31127;52.078;4.370;2022-07-06T20:47:07;4.97;;;3.13;;
45388;SDS011;31127;52.078;4.370;2022-07-06T20:52:02;6.75;;;3.50;;
45388;SDS011;31127;52.078;4.370;2022-07-06T21:02:06;7.47;;;3.45;;
45388;SDS011;31127;52.078;4.370;2022-07-06T21:12:10;7.47;;;2.72;;
45388;SDS011;31127;52.078;4.370;2022-07-06T21:17:06;7.40;;;3.38;;
45388;SDS011;31127;52.078;4.370;2022-07-06T21:22:02;8.07;;;2.70;;
45388;SDS011;31127;52.078;4.370;2022-07-06T21:26:58;10.30;;;2.88;;
45388;SDS011;31127;52.078;4.370;2022-07-06T21:31:53;9.80;;;2.88;;
45388;SDS011;31127;52.078;4.370;2022-07-06T21:47:14;10.38;;;2.45;;
45388;SDS011;31127;52.078;4.370;2022-07-06T21:52:10;5.27;;;2.83;;
45388;SDS011;31127;52.078;4.370;2022-07-06T21:57:05;6.07;;;2.30;;
45388;SDS011;31127;52.078;4.370;2022-07-06T22:02:00;4.53;;;1.90;;
45388;SDS011;31127;52.078;4.370;2022-07-06T22:17:53;10.93;;;2.88;;
45388;SDS011;31127;52.078;4.370;2022-07-06T22:22:49;7.20;;;2.95;;
45388;SDS011;31127;52.078;4.370;2022-07-06T22:27:45;3.97;;;2.13;;
45388;SDS011;31127;52.078;4.370;2022-07-06T22:32:40;5.47;;;2.13;;
45388;SDS011;31127;52.078;4.370;2022-07-06T22:37:35;7.68;;;2.30;;
45388;SDS011;31127;52.078;4.370;2022-07-06T22:42:31;8.05;;;2.40;;
45388;SDS011;31127;52.078;4.370;2022-07-06T22:47:26;6.75;;;2.60;;
45388;SDS011;31127;52.078;4.370;2022-07-06T22:52:22;4.30;;;2.17;;
45388;SDS011;31127;52.078;4.370;2022-07-06T22:57:17;6.10;;;2.33;;
45388;SDS011;31127;52.078;4.370;2022-07-06T23:02:13;5.32;;;2.28;;
45388;SDS011;31127;52.078;4.370;2022-07-06T23:07:09;7.78;;;2.72;;
45388;SDS011;31127;52.078;4.370;2022-07-06T23:12:04;7.22;;;2.97;;
45388;SDS011;31127;52.078;4.370;2022-07-06T23:17:00;8.30;;;2.58;;
45388;SDS011;31127;52.078;4.370;2022-07-06T23:26:52;5.03;;;2.92;;
45388;SDS011;31127;52.078;4.370;2022-07-06T23:31:47;11.90;;;2.55;;
45388;SDS011;31127;52.078;4.370;2022-07-06T23:36:46;6.18;;;2.65;;
45388;SDS011;31127;52.078;4.370;2022-07-06T23:41:42;9.68;;;2.90;;
45388;SDS011;31127;52.078;4.370;2022-07-06T23:46:37;6.05;;;2.47;;
45388;SDS011;31127;52.078;4.370;2022-07-06T23:51:33;13.68;;;3.30;;
45388;SDS011;31127;52.078;4.370;2022-07-06T23:56:28;9.68;;;2.72;;
